Αρχική σελίδα
METAR-TAF:

METAR-TAF

Αεροδρόμια :

Αμμάν, Ιορδανία

γεωγραφικό πλάτος: 31-59N, γεωγραφικό μήκος: 035-59E, υψόμετρο: 767 μ

Παρών καιρός

Η αναφορά έγινε 1 ώρα και 6 λεπτά πριν, στις 02:00 UTC
Άνεμος 7 kt από Β/BΔ
Θερμοκρασία 19°C
Υγρασία 60%
Πίεση 1013 hPa
Ορατότητα: 6000 μ

METAR: OJAM 240200Z 34007KT 6000 NSC 19/11 Q1013 NOSIG

Χρόνος: 06:06 (03:06 UTC)

Πρόγνωση Καιρού

Η αναφορά έγινε 4 ώρες και 49 λεπτά πριν, στις 22:17 UTC
Η πρόγνωση ισχύει από τις 24 στις 00 UTC έως τις 25 στις 06 UTC
Άνεμος 12 kt από Δ/BΔ
Ορατότητα: 6000 μ
Προσωρινά
από 24 στις 03 UTC έως τις 24 στις 17 UTC
Ορατότητα: 4000 μ
καταχνιά

TAF: OJAM 232217Z 2400/2506 29012KT 6000 NSC TEMPO 2403/2417 4000 HZ

Μετεωρολογικές αναφορές και προγνώσεις για περισσότερα από 4000 αεροδρόμια (δελτία METAR και TAF).

Οι διαθέσιμοι σταθμοί απεικονίζονται στο χάρτη με κίτρινες και κόκκινες κουκκίδες.

Μετακινήστε το ποντίκι πάνω από τις κουκκίδες για να δείτε το όνομα του σταθμού.

Στη συνέχεια, κάντε κλικ για να δείτε τις μετεωρολογικές αναφορές και τις προγνώσεις καιρού.

Για να αλλάξετε το χάρτη: κάντε κλικ στα πράσινα κουμπιά με τον μαύρο σταυρό για να ζουμάρετε, στο πράσινο κουμπί με την παύλα για να αφαιρέσετε το ζουμ ή στα πράσινα βέλη για να αντιπαραβάλλετε χάρτες.


METAR-TAF: